createdAt,value
2018-10-05T00:00:53.196Z,8.40
2018-10-05T00:03:20.616Z,9.00
2018-10-05T00:05:48.100Z,9.20
2018-10-05T00:08:15.536Z,8.73
2018-10-05T00:10:43.097Z,8.80
2018-10-05T00:13:10.543Z,8.43
2018-10-05T00:15:38.083Z,8.80
2018-10-05T00:18:05.744Z,8.93
2018-10-05T00:20:42.589Z,8.70
2018-10-05T00:23:10.055Z,9.17
2018-10-05T00:25:37.580Z,9.07
2018-10-05T00:28:05.219Z,8.93
2018-10-05T00:30:32.717Z,8.43
2018-10-05T00:33:00.246Z,8.73
2018-10-05T00:35:27.760Z,8.90
2018-10-05T00:37:55.351Z,8.70
2018-10-05T00:40:22.828Z,8.53
2018-10-05T00:42:50.357Z,8.97
2018-10-05T00:45:17.799Z,9.03
2018-10-05T00:47:54.691Z,9.23
2018-10-05T00:50:22.153Z,8.87
2018-10-05T00:52:49.632Z,10.53
2018-10-05T00:55:17.059Z,9.83
2018-10-05T00:57:44.645Z,9.30
2018-10-05T01:00:12.060Z,9.23
2018-10-05T01:02:39.553Z,9.87
2018-10-05T01:05:07.053Z,9.20
2018-10-05T01:07:34.548Z,9.73
2018-10-05T01:10:02.050Z,9.43
2018-10-05T01:12:29.531Z,11.27
2018-10-05T01:14:56.999Z,11.00
2018-10-05T01:17:24.448Z,9.83
2018-10-05T01:19:51.931Z,10.80
2018-10-05T01:22:19.390Z,12.00
2018-10-05T01:24:46.932Z,11.40
2018-10-05T01:27:14.315Z,11.27
2018-10-05T01:29:41.806Z,11.63
2018-10-05T01:32:09.213Z,11.77
2018-10-05T01:34:36.690Z,10.70
2018-10-05T01:37:04.197Z,10.90
2018-10-05T01:39:31.682Z,10.77
2018-10-05T01:41:59.174Z,12.10
2018-10-05T01:44:26.595Z,10.70
2018-10-05T01:46:54.066Z,11.63
2018-10-05T01:49:21.500Z,11.33
2018-10-05T01:51:49.027Z,10.73
2018-10-05T01:54:16.441Z,10.73
2018-10-05T01:56:43.880Z,11.97
2018-10-05T01:59:11.309Z,11.33
2018-10-05T02:01:38.802Z,11.13
2018-10-05T02:04:06.306Z,13.78
2018-10-05T02:06:33.801Z,11.50
2018-10-05T02:09:01.249Z,11.63
2018-10-05T02:11:28.730Z,11.10
2018-10-05T02:13:56.152Z,11.60
2018-10-05T02:16:23.641Z,10.73
2018-10-05T02:18:51.101Z,11.87
2018-10-05T02:21:18.591Z,10.37
2018-10-05T02:23:46.080Z,10.90
2018-10-05T02:26:13.540Z,11.37
2018-10-05T02:28:40.966Z,11.67
2018-10-05T02:31:08.410Z,11.10
2018-10-05T02:33:35.874Z,11.33
2018-10-05T02:36:03.705Z,10.43
2018-10-05T02:38:31.210Z,10.43
2018-10-05T02:40:58.711Z,11.67
2018-10-05T02:43:26.245Z,13.80
2018-10-05T02:45:53.675Z,12.17
2018-10-05T02:48:21.196Z,13.23
2018-10-05T02:50:48.655Z,11.53
2018-10-05T02:53:16.155Z,12.10
2018-10-05T02:55:43.566Z,11.07
2018-10-05T02:58:11.101Z,11.40
2018-10-05T03:00:49.869Z,11.73
2018-10-05T03:03:17.322Z,10.83
2018-10-05T03:05:44.740Z,12.47
2018-10-05T03:08:12.204Z,11.00
2018-10-05T03:10:39.685Z,11.57
2018-10-05T03:13:07.186Z,12.80
2018-10-05T03:15:34.626Z,14.53
2018-10-05T03:18:02.126Z,14.57
2018-10-05T03:20:29.596Z,14.17
2018-10-05T03:22:57.069Z,15.30
2018-10-05T03:25:24.446Z,14.70
2018-10-05T03:27:51.884Z,15.57
2018-10-05T03:30:19.350Z,16.57
2018-10-05T03:32:46.833Z,15.30
2018-10-05T03:35:14.309Z,15.37
2018-10-05T03:37:41.747Z,15.90
2018-10-05T03:40:09.259Z,14.73
2018-10-05T03:42:36.735Z,16.87
2018-10-05T03:45:04.256Z,16.40
2018-10-05T03:47:31.640Z,16.37
2018-10-05T03:49:59.116Z,15.37
2018-10-05T03:52:26.509Z,15.43
2018-10-05T03:54:53.964Z,17.83
2018-10-05T03:57:21.379Z,19.30
2018-10-05T03:59:48.851Z,19.20
2018-10-05T04:02:16.259Z,20.47
2018-10-05T04:04:43.706Z,18.47
2018-10-05T04:07:13.600Z,17.03
2018-10-05T04:09:41.011Z,18.90
2018-10-05T04:12:08.490Z,19.40
2018-10-05T04:14:35.890Z,19.47
2018-10-05T04:17:03.365Z,18.97
2018-10-05T04:19:30.779Z,21.40
2018-10-05T04:21:58.262Z,21.53
2018-10-05T04:24:25.653Z,18.73
2018-10-05T04:26:53.105Z,20.33
2018-10-05T04:29:20.558Z,19.57
2018-10-05T04:31:48.065Z,24.25
2018-10-05T04:34:15.547Z,25.37
2018-10-05T04:36:43.056Z,20.70
2018-10-05T04:39:10.510Z,20.47
2018-10-05T04:41:37.952Z,20.83
2018-10-05T04:44:05.575Z,20.63
2018-10-05T04:46:33.061Z,18.43
2018-10-05T04:49:00.522Z,19.13
2018-10-05T04:51:27.999Z,18.90
2018-10-05T04:53:55.472Z,21.30
2018-10-05T04:56:23.083Z,20.37
2018-10-05T04:58:50.498Z,19.13
2018-10-05T05:01:17.962Z,20.10
2018-10-05T05:03:45.445Z,19.07
2018-10-05T05:06:12.917Z,18.47
2018-10-05T05:08:40.348Z,19.53
2018-10-05T05:11:07.825Z,19.70
2018-10-05T05:13:35.289Z,19.17
2018-10-05T05:16:02.765Z,19.33
2018-10-05T05:18:30.240Z,19.33
2018-10-05T05:20:57.923Z,18.80
2018-10-05T05:23:25.349Z,17.13
2018-10-05T05:25:52.831Z,17.00
2018-10-05T05:28:20.335Z,16.03
2018-10-05T05:30:47.991Z,17.77
2018-10-05T05:33:15.449Z,17.03
2018-10-05T05:35:42.941Z,19.37
2018-10-05T05:38:10.555Z,19.13
2018-10-05T05:40:37.984Z,19.83
2018-10-05T05:43:05.616Z,18.13
2018-10-05T05:45:33.082Z,19.90
2018-10-05T05:48:00.556Z,19.73
2018-10-05T05:50:28.056Z,18.33
2018-10-05T05:52:55.502Z,19.47
2018-10-05T05:55:22.935Z,19.40
2018-10-05T05:57:50.447Z,21.53
2018-10-05T06:00:17.945Z,22.87
2018-10-05T06:02:45.394Z,20.23
2018-10-05T06:05:12.913Z,22.17
2018-10-05T06:07:40.371Z,20.57
2018-10-05T06:10:07.903Z,23.73
2018-10-05T06:12:35.327Z,23.27
2018-10-05T06:15:02.914Z,23.17
2018-10-05T06:17:30.365Z,23.50
2018-10-05T06:19:57.841Z,23.40
2018-10-05T06:22:25.622Z,23.80
2018-10-05T06:24:52.832Z,24.23
2018-10-05T06:27:20.429Z,25.23
2018-10-05T06:29:48.040Z,27.47
2018-10-05T06:32:15.486Z,29.13
2018-10-05T06:34:42.887Z,27.83
2018-10-05T06:37:10.402Z,28.90
2018-10-05T06:39:37.797Z,32.40
2018-10-05T06:42:05.450Z,78.43
2018-10-05T06:44:32.752Z,30.67
2018-10-05T06:47:00.231Z,27.80
2018-10-05T06:49:27.651Z,28.40
2018-10-05T06:51:55.116Z,27.93
2018-10-05T06:54:22.545Z,30.77
2018-10-05T06:56:50.034Z,29.40
2018-10-05T06:59:17.451Z,29.83
2018-10-05T07:01:44.926Z,29.80
2018-10-05T07:04:12.332Z,29.17
2018-10-05T07:06:39.788Z,29.70
2018-10-05T07:09:07.953Z,29.93
2018-10-05T07:11:35.601Z,30.57
2018-10-05T07:14:03.282Z,30.67
2018-10-05T07:16:30.942Z,30.20
2018-10-05T07:18:58.438Z,31.70
2018-10-05T07:21:26.003Z,28.70
2018-10-05T07:23:53.473Z,28.90
2018-10-05T07:26:20.971Z,28.77
2018-10-05T07:28:48.565Z,28.17
2018-10-05T07:31:15.968Z,26.87
2018-10-05T07:33:43.496Z,27.97
2018-10-05T07:36:11.058Z,27.47
2018-10-05T07:38:39.140Z,27.97
2018-10-05T07:41:06.685Z,27.63
2018-10-05T07:43:34.180Z,27.90
2018-10-05T07:46:01.699Z,27.70
2018-10-05T07:48:29.305Z,28.00
2018-10-05T07:50:56.821Z,26.47
2018-10-05T07:53:24.337Z,27.07
2018-10-05T07:55:51.825Z,26.50
2018-10-05T07:58:19.295Z,25.67
2018-10-05T08:00:46.790Z,24.17
2018-10-05T08:03:14.246Z,27.40
2018-10-05T08:05:41.761Z,25.13
2018-10-05T08:08:09.227Z,24.70
2018-10-05T08:10:36.791Z,27.07
2018-10-05T08:13:04.309Z,26.30
2018-10-05T08:15:31.793Z,24.30
2018-10-05T08:17:59.247Z,24.47
2018-10-05T08:20:27.051Z,23.60
2018-10-05T08:22:54.588Z,24.13
2018-10-05T08:25:22.037Z,22.47
2018-10-05T08:27:49.559Z,23.67
2018-10-05T08:30:17.002Z,24.40
2018-10-05T08:32:44.497Z,23.07
2018-10-05T08:35:12.193Z,20.70
2018-10-05T08:37:39.794Z,22.73
2018-10-05T08:40:07.612Z,22.13
2018-10-05T08:42:37.004Z,21.63
2018-10-05T08:45:04.538Z,22.00
2018-10-05T08:47:32.200Z,21.37
2018-10-05T08:49:59.930Z,19.30
2018-10-05T08:52:27.482Z,19.87
2018-10-05T08:54:54.957Z,20.43
2018-10-05T08:57:22.458Z,19.63
2018-10-05T08:59:49.954Z,20.00
2018-10-05T09:02:17.453Z,19.03
2018-10-05T09:04:44.898Z,19.13
2018-10-05T09:07:12.407Z,18.60
2018-10-05T09:09:39.911Z,22.83
2018-10-05T09:12:07.322Z,18.50
2018-10-05T09:14:34.832Z,17.53
2018-10-05T09:17:02.308Z,18.33
2018-10-05T09:19:29.756Z,17.43
2018-10-05T09:21:58.111Z,16.80
2018-10-05T09:24:25.599Z,18.07
2018-10-05T09:26:53.076Z,15.93
2018-10-05T09:29:20.591Z,15.60
2018-10-05T09:31:48.056Z,15.83
2018-10-05T09:34:15.555Z,15.23
2018-10-05T09:36:43.108Z,15.00
2018-10-05T09:39:10.546Z,16.17
2018-10-05T09:41:38.076Z,15.77
2018-10-05T09:44:05.507Z,13.33
2018-10-05T09:46:33.095Z,15.95
2018-10-05T09:49:00.583Z,14.87
2018-10-05T09:51:28.053Z,13.80
2018-10-05T09:53:55.512Z,13.73
2018-10-05T09:56:22.965Z,14.10
2018-10-05T09:58:50.432Z,10.47
2018-10-05T10:01:23.464Z,13.33
2018-10-05T10:03:50.950Z,12.00
2018-10-05T10:06:18.461Z,11.90
2018-10-05T10:08:45.978Z,10.80
2018-10-05T10:11:13.433Z,9.60
2018-10-05T10:13:40.983Z,9.88
2018-10-05T10:16:08.463Z,10.43
2018-10-05T10:18:35.963Z,9.40
2018-10-05T10:21:03.428Z,8.55
2018-10-05T10:23:30.927Z,8.35
2018-10-05T10:25:58.400Z,7.53
2018-10-05T10:28:25.968Z,9.13
2018-10-05T10:30:53.392Z,7.60
2018-10-05T10:33:20.923Z,7.22
2018-10-05T10:35:48.539Z,6.42
2018-10-05T10:38:25.483Z,7.25
2018-10-05T10:40:52.893Z,5.87
2018-10-05T10:43:20.463Z,6.62
2018-10-05T10:45:47.908Z,7.67
2018-10-05T10:48:15.407Z,5.53
2018-10-05T10:50:42.858Z,6.47
2018-10-05T10:53:10.331Z,5.60
2018-10-05T10:55:37.817Z,5.25
2018-10-05T10:58:05.372Z,6.03
2018-10-05T11:00:32.912Z,5.28
2018-10-05T11:03:00.387Z,3.92
2018-10-05T11:05:27.845Z,3.83
2018-10-05T11:07:55.324Z,3.00
2018-10-05T11:10:22.752Z,2.58
2018-10-05T11:12:50.281Z,3.05
2018-10-05T11:15:17.752Z,4.70
2018-10-05T11:17:45.240Z,2.67
2018-10-05T11:20:12.729Z,2.60
2018-10-05T11:22:40.191Z,2.77
2018-10-05T11:25:07.674Z,2.87
2018-10-05T11:27:35.125Z,2.52
2018-10-05T11:30:02.678Z,2.58
2018-10-05T11:32:30.130Z,2.33
2018-10-05T11:34:57.600Z,2.85
2018-10-05T11:37:25.089Z,2.02
2018-10-05T11:39:52.561Z,2.37
2018-10-05T11:42:20.037Z,2.80
2018-10-05T11:44:47.517Z,2.83
2018-10-05T11:47:14.964Z,2.55
2018-10-05T11:49:42.448Z,2.22
2018-10-05T11:52:09.925Z,2.30
2018-10-05T11:54:37.442Z,2.55
2018-10-05T11:57:05.026Z,2.22
2018-10-05T11:59:32.550Z,2.45
2018-10-05T12:02:00.035Z,2.50
2018-10-05T12:04:27.520Z,2.85
2018-10-05T12:06:55.005Z,3.03
2018-10-05T12:09:22.457Z,2.90
2018-10-05T12:11:50.063Z,2.80
2018-10-05T12:14:17.514Z,2.80
2018-10-05T12:16:45.003Z,3.10
2018-10-05T12:19:12.445Z,3.33
2018-10-05T12:21:39.913Z,3.10
2018-10-05T12:24:07.451Z,3.10
2018-10-05T12:26:35.080Z,3.03
2018-10-05T12:29:02.559Z,2.60
2018-10-05T12:31:30.148Z,2.72
2018-10-05T12:33:57.701Z,2.75
2018-10-05T12:36:25.153Z,2.85
2018-10-05T12:38:52.684Z,3.00
2018-10-05T12:41:20.201Z,2.77
2018-10-05T12:43:47.754Z,3.35
2018-10-05T12:46:15.188Z,2.60
2018-10-05T12:48:42.683Z,2.80
2018-10-05T12:51:10.131Z,2.65
2018-10-05T12:53:37.691Z,2.55
2018-10-05T12:56:05.141Z,2.72
2018-10-05T12:58:32.674Z,2.50
2018-10-05T13:01:00.178Z,2.52
2018-10-05T13:03:27.655Z,2.90
2018-10-05T13:05:55.110Z,2.40
2018-10-05T13:08:22.846Z,2.35
2018-10-05T13:10:50.255Z,2.90
2018-10-05T13:13:17.740Z,2.10
2018-10-05T13:15:45.249Z,2.20
2018-10-05T13:18:12.737Z,2.25
2018-10-05T13:20:40.239Z,2.00
2018-10-05T13:23:07.831Z,1.90
2018-10-05T13:25:35.332Z,1.90
2018-10-05T13:28:02.811Z,1.62
2018-10-05T13:30:30.399Z,1.70
2018-10-05T13:32:57.834Z,1.87
2018-10-05T13:35:25.289Z,1.90
2018-10-05T13:37:52.777Z,1.62
2018-10-05T13:40:20.259Z,2.00
2018-10-05T13:42:47.798Z,1.75
2018-10-05T13:45:15.308Z,1.80
2018-10-05T13:47:42.759Z,1.77
2018-10-05T13:50:11.765Z,1.47
2018-10-05T13:52:39.244Z,1.60
2018-10-05T13:55:06.753Z,1.70
2018-10-05T13:57:34.205Z,1.87
2018-10-05T14:00:01.808Z,1.47
2018-10-05T14:02:29.509Z,1.60
2018-10-05T14:04:57.101Z,1.70
2018-10-05T14:07:24.608Z,1.80
2018-10-05T14:09:52.102Z,1.70
2018-10-05T14:12:19.567Z,1.77
2018-10-05T14:14:47.050Z,1.70
2018-10-05T14:17:14.549Z,1.80
2018-10-05T14:19:42.102Z,1.80
2018-10-05T14:22:09.613Z,1.40
2018-10-05T14:24:37.120Z,3.60
2018-10-05T14:27:04.623Z,2.60
2018-10-05T14:29:32.162Z,1.57
2018-10-05T14:31:59.713Z,1.40
2018-10-05T14:34:27.238Z,1.75
2018-10-05T14:36:54.768Z,1.42
2018-10-05T14:39:22.285Z,4.40
2018-10-05T14:41:49.954Z,2.52
2018-10-05T14:44:17.307Z,2.10
2018-10-05T14:46:44.777Z,2.22
2018-10-05T14:49:12.260Z,2.20
2018-10-05T14:51:39.714Z,2.37
2018-10-05T14:54:07.219Z,2.17
2018-10-05T14:56:34.703Z,2.30
2018-10-05T14:59:02.214Z,2.12
2018-10-05T15:01:29.662Z,2.30
2018-10-05T15:03:57.198Z,2.00
2018-10-05T15:06:24.716Z,2.52
2018-10-05T15:08:52.220Z,2.40
2018-10-05T15:11:20.335Z,2.20
2018-10-05T15:13:47.826Z,2.20
2018-10-05T15:16:15.343Z,2.42
2018-10-05T15:18:42.830Z,2.33
2018-10-05T15:21:10.324Z,2.42
2018-10-05T15:23:37.819Z,2.50
2018-10-05T15:26:05.343Z,2.90
2018-10-05T15:28:32.837Z,2.72
2018-10-05T15:31:00.292Z,2.30
2018-10-05T15:33:27.802Z,2.40
2018-10-05T15:35:55.283Z,2.70
2018-10-05T15:38:22.805Z,2.45
2018-10-05T15:40:50.358Z,2.77
2018-10-05T15:43:17.910Z,2.70
2018-10-05T15:45:45.725Z,1.98
2018-10-05T15:48:13.444Z,2.27
2018-10-05T15:50:41.945Z,2.58
2018-10-05T15:53:09.773Z,2.70
2018-10-05T15:55:37.776Z,2.40
2018-10-05T15:58:05.484Z,2.30
2018-10-05T16:00:33.256Z,2.60
2018-10-05T16:03:00.839Z,2.55
2018-10-05T16:05:28.723Z,2.33
2018-10-05T16:07:56.490Z,2.35
2018-10-05T16:10:24.127Z,2.62
2018-10-05T16:12:51.876Z,2.45
2018-10-05T16:15:19.566Z,2.60
2018-10-05T16:17:47.260Z,2.53
2018-10-05T16:20:15.065Z,2.50
2018-10-05T16:22:42.796Z,3.30
2018-10-05T16:25:10.579Z,3.20
2018-10-05T16:27:38.259Z,2.70
2018-10-05T16:30:06.716Z,2.60
2018-10-05T16:32:34.334Z,2.43
2018-10-05T16:35:02.090Z,2.70
2018-10-05T16:37:29.907Z,2.70
2018-10-05T16:39:57.521Z,2.70
2018-10-05T16:42:25.017Z,2.30
2018-10-05T16:44:52.821Z,2.27
2018-10-05T16:47:20.336Z,3.07
2018-10-05T16:49:47.803Z,2.40
2018-10-05T16:52:15.300Z,2.50
2018-10-05T16:54:42.770Z,2.90
2018-10-05T16:57:10.308Z,2.77
2018-10-05T16:59:37.810Z,2.70
2018-10-05T17:02:05.385Z,3.00
2018-10-05T17:04:32.823Z,2.80
2018-10-05T17:07:00.286Z,2.43
2018-10-05T17:09:27.786Z,2.83
2018-10-05T17:11:55.252Z,3.40
2018-10-05T17:14:22.730Z,3.07
2018-10-05T17:16:50.201Z,3.90
2018-10-05T17:19:17.758Z,3.83
2018-10-05T17:21:45.219Z,3.53
2018-10-05T17:24:12.673Z,3.33
2018-10-05T17:26:40.169Z,3.50
2018-10-05T17:29:07.669Z,3.93
2018-10-05T17:31:35.346Z,4.80
2018-10-05T17:34:02.767Z,4.17
2018-10-05T17:36:30.324Z,4.40
2018-10-05T17:38:57.860Z,3.93
2018-10-05T17:41:25.359Z,3.90
2018-10-05T17:43:52.831Z,4.03
2018-10-05T17:46:20.394Z,4.90
2018-10-05T17:48:47.891Z,5.40
2018-10-05T17:51:15.400Z,4.77
2018-10-05T17:53:42.861Z,5.17
2018-10-05T17:56:10.418Z,5.20
2018-10-05T17:58:37.919Z,5.73
2018-10-05T18:01:05.434Z,5.70
2018-10-05T18:03:32.938Z,6.83
2018-10-05T18:06:00.465Z,6.47
2018-10-05T18:08:28.059Z,7.30
2018-10-05T18:10:55.532Z,6.80
2018-10-05T18:13:23.021Z,6.93
2018-10-05T18:15:50.560Z,8.20
2018-10-05T18:18:18.109Z,9.93
2018-10-05T18:20:45.633Z,9.10
2018-10-05T18:23:13.105Z,9.83
2018-10-05T18:25:40.628Z,18.27
2018-10-05T18:28:08.155Z,15.77
2018-10-05T18:30:35.699Z,14.40
2018-10-05T18:33:03.201Z,12.47
2018-10-05T18:35:30.682Z,14.97
2018-10-05T18:37:58.143Z,13.97
2018-10-05T18:40:25.714Z,12.20
2018-10-05T18:42:53.210Z,13.90
2018-10-05T18:45:20.676Z,13.93
2018-10-05T18:47:48.278Z,15.73
2018-10-05T18:50:15.750Z,27.17
2018-10-05T18:52:43.264Z,49.50
2018-10-05T18:55:10.765Z,55.00
2018-10-05T18:57:38.304Z,42.23
2018-10-05T19:00:06.189Z,35.37
2018-10-05T19:02:33.621Z,34.87
2018-10-05T19:05:01.090Z,24.67
2018-10-05T19:07:28.604Z,16.73
2018-10-05T19:09:56.085Z,15.73
2018-10-05T19:12:23.616Z,13.20
2018-10-05T19:14:51.105Z,12.33
2018-10-05T19:17:18.619Z,12.07
2018-10-05T19:19:46.099Z,11.93
2018-10-05T19:22:13.593Z,10.23
2018-10-05T19:24:41.094Z,9.70
2018-10-05T19:27:08.581Z,10.53
2018-10-05T19:29:36.133Z,9.90
2018-10-05T19:32:03.635Z,10.00
2018-10-05T19:34:31.165Z,9.33
2018-10-05T19:36:58.684Z,9.53
2018-10-05T19:39:26.217Z,9.53
2018-10-05T19:41:53.699Z,9.83
2018-10-05T19:44:21.278Z,9.20
2018-10-05T19:46:48.793Z,8.33
2018-10-05T19:49:16.330Z,9.70
2018-10-05T19:51:43.870Z,9.53
2018-10-05T19:54:11.393Z,8.77
2018-10-05T19:56:38.931Z,9.20
2018-10-05T19:59:06.494Z,9.50
2018-10-05T20:01:33.953Z,9.73
2018-10-05T20:04:01.450Z,9.10
2018-10-05T20:06:29.385Z,9.30
2018-10-05T20:08:57.191Z,9.60
2018-10-05T20:11:25.245Z,9.40
2018-10-05T20:13:52.792Z,9.50
2018-10-05T20:16:20.355Z,8.73
2018-10-05T20:18:47.857Z,8.60
2018-10-05T20:21:15.371Z,9.03
2018-10-05T20:23:43.283Z,10.20
2018-10-05T20:26:10.968Z,10.70
2018-10-05T20:28:38.765Z,11.97
2018-10-05T20:31:06.242Z,15.07
2018-10-05T20:33:33.832Z,16.90
2018-10-05T20:36:01.517Z,21.30
2018-10-05T20:38:29.285Z,18.40
2018-10-05T20:40:56.725Z,14.67
2018-10-05T20:43:24.645Z,14.93
2018-10-05T20:45:52.310Z,19.83
2018-10-05T20:48:20.105Z,20.67
2018-10-05T20:50:47.947Z,16.03
2018-10-05T20:55:40.326Z,14.23
2018-10-05T20:58:08.149Z,13.57
2018-10-05T21:00:35.633Z,12.80
2018-10-05T21:03:03.188Z,11.80
2018-10-05T21:05:30.677Z,13.23
2018-10-05T21:07:58.555Z,14.57
2018-10-05T21:10:26.050Z,15.20
2018-10-05T21:12:53.950Z,14.87
2018-10-05T21:15:22.091Z,13.03
2018-10-05T21:17:49.910Z,12.37
2018-10-05T21:20:17.603Z,12.67
2018-10-05T21:22:45.256Z,11.33
2018-10-05T21:25:13.320Z,12.67
2018-10-05T21:27:40.810Z,14.10
2018-10-05T21:30:08.268Z,15.13
2018-10-05T21:32:35.795Z,16.53
2018-10-05T21:35:03.488Z,13.30
2018-10-05T21:37:31.005Z,14.80
2018-10-05T21:39:58.551Z,16.00
2018-10-05T21:42:26.138Z,15.00
2018-10-05T21:44:53.613Z,14.70
2018-10-05T21:47:21.100Z,14.03
2018-10-05T21:49:48.574Z,14.00
2018-10-05T21:52:16.182Z,15.80
2018-10-05T21:54:43.595Z,14.07
2018-10-05T21:57:11.010Z,12.70
2018-10-05T21:59:39.028Z,12.63
2018-10-05T22:02:06.663Z,11.80
2018-10-05T22:04:34.142Z,12.07
2018-10-05T22:07:01.679Z,11.63
2018-10-05T22:09:29.215Z,10.57
2018-10-05T22:11:56.683Z,11.10
2018-10-05T22:14:24.206Z,10.17
2018-10-05T22:16:51.706Z,10.17
2018-10-05T22:19:19.249Z,10.60
2018-10-05T22:21:46.651Z,10.37
2018-10-05T22:24:14.118Z,10.50
2018-10-05T22:26:41.594Z,9.83
2018-10-05T22:29:09.119Z,10.30
2018-10-05T22:31:36.631Z,10.67
2018-10-05T22:34:04.076Z,11.83
2018-10-05T22:36:31.562Z,10.60
2018-10-05T22:38:59.048Z,10.70
2018-10-05T22:41:26.556Z,10.93
2018-10-05T22:43:54.073Z,10.93
2018-10-05T22:46:21.567Z,11.23
2018-10-05T22:48:49.035Z,10.63
2018-10-05T22:51:16.488Z,11.53
2018-10-05T22:53:43.943Z,11.27
2018-10-05T22:56:11.496Z,11.17
2018-10-05T22:58:38.972Z,10.00
2018-10-05T23:01:06.464Z,11.13
2018-10-05T23:03:34.133Z,10.97
2018-10-05T23:06:01.570Z,10.93
2018-10-05T23:08:29.057Z,11.73
2018-10-05T23:10:56.491Z,10.37
2018-10-05T23:13:23.920Z,10.47
2018-10-05T23:15:51.377Z,11.40
2018-10-05T23:18:18.827Z,11.73
2018-10-05T23:20:46.342Z,10.63
2018-10-05T23:23:13.809Z,11.07
2018-10-05T23:25:41.296Z,11.37
2018-10-05T23:28:08.791Z,11.07
2018-10-05T23:30:36.262Z,11.23
2018-10-05T23:33:03.731Z,11.13
2018-10-05T23:35:31.160Z,10.57
2018-10-05T23:37:58.627Z,11.13
2018-10-05T23:40:26.115Z,10.40
2018-10-05T23:42:53.627Z,10.53
2018-10-05T23:45:21.094Z,11.40
2018-10-05T23:47:48.539Z,11.83
2018-10-05T23:50:16.151Z,11.93
2018-10-05T23:52:46.726Z,12.77
2018-10-05T23:55:14.236Z,12.57
2018-10-05T23:57:42.101Z,12.37
